Portada
METAR-TAF:

METAR-TAF

Aeroports :

Bagdad, Iraq

latitud: 33-15-45N, longitud: 44-14-04E, altitud: 35 m

Observació

L'informe es va fer fa 46 minuts, a les 16:00 UTC
Vent 12 kt del Est
Temperatura 20°C
Humitat 64%
Pressió 1018 hPa
Visibilitat 10 km o més
Cel ennuvolat a una alçada de 3000 ft

METAR: ORBI 181600Z 09012KT 9999 BKN030 20/13 Q1018 NOSIG

Hora: 19:46 (16:46 UTC)

Pronòstic

L'informe es va fer fa 5 hores i 46 minuts, a les 11:00 UTC
Pronòstic vàlid del 18 a les 12 UTC al 19 a les 12 UTC
Vent 8 kt del Est/Sud-Est
Visibilitat: 7000 m
Cel ennuvolat a una alçada de 3000 ft
Cel ennuvolat a una alçada de 10000 ft
Temporalment
l' 18 a les 17 UTC al 19 a les 06 UTC
Visibilitat: 5000 m
calitja, xàfecs de pluja

TAF: ORBI 181100Z 1812/1912 12008KT 7000 BKN030 BKN100 TEMPO 1817/1906 5000 HZ SHRA

Observacions i pronòstics meteorològics de més de 4000 aeroports (METAR i TAF).

Les estacions disponibles són els punts grocs i vermells al mapa.

Posi el ratolí al punt desitjat per veure el nom de l'estació.

Feu clic per veure les observacions i els pronòstics meteorològics.

Per canviar el mapa: feu clic els botons verds amb una creu de color negre per apropar; al botó verd amb un guió per allunyar la imatge; o en les fletxes verdes per a mapes adjacents.


METAR-TAF: